sensor_id;sensor_type;location;lat;lon;timestamp;P1;durP1;ratioP1;P2;durP2;ratioP2
21539;SDS011;10931;52.164;5.518;2023-05-23T00:02:19;3.42;;;2.08;;
21539;SDS011;10931;52.164;5.518;2023-05-23T00:04:45;4.28;;;1.92;;
21539;SDS011;10931;52.164;5.518;2023-05-23T00:07:18;3.00;;;2.15;;
21539;SDS011;10931;52.164;5.518;2023-05-23T00:09:47;3.20;;;1.77;;
21539;SDS011;10931;52.164;5.518;2023-05-23T00:12:16;3.42;;;1.80;;
21539;SDS011;10931;52.164;5.518;2023-05-23T00:14:44;2.53;;;1.90;;
21539;SDS011;10931;52.164;5.518;2023-05-23T00:17:12;3.83;;;2.10;;
21539;SDS011;10931;52.164;5.518;2023-05-23T00:19:49;3.05;;;1.98;;
21539;SDS011;10931;52.164;5.518;2023-05-23T00:22:20;2.38;;;1.80;;
21539;SDS011;10931;52.164;5.518;2023-05-23T00:24:51;3.03;;;1.90;;
21539;SDS011;10931;52.164;5.518;2023-05-23T00:27:19;2.63;;;1.65;;
21539;SDS011;10931;52.164;5.518;2023-05-23T00:29:55;3.95;;;2.15;;
21539;SDS011;10931;52.164;5.518;2023-05-23T00:32:24;2.95;;;2.05;;
21539;SDS011;10931;52.164;5.518;2023-05-23T00:34:50;5.05;;;2.30;;
21539;SDS011;10931;52.164;5.518;2023-05-23T00:37:19;3.40;;;1.92;;
21539;SDS011;10931;52.164;5.518;2023-05-23T00:39:46;3.00;;;2.28;;
21539;SDS011;10931;52.164;5.518;2023-05-23T00:42:15;2.63;;;1.50;;
21539;SDS011;10931;52.164;5.518;2023-05-23T00:44:41;4.20;;;2.08;;
21539;SDS011;10931;52.164;5.518;2023-05-23T00:47:07;3.03;;;2.00;;
21539;SDS011;10931;52.164;5.518;2023-05-23T00:49:33;2.70;;;1.83;;
21539;SDS011;10931;52.164;5.518;2023-05-23T00:52:02;2.75;;;1.80;;
21539;SDS011;10931;52.164;5.518;2023-05-23T00:54:28;2.42;;;1.92;;
21539;SDS011;10931;52.164;5.518;2023-05-23T00:56:57;2.15;;;1.80;;
21539;SDS011;10931;52.164;5.518;2023-05-23T00:59:31;2.45;;;1.63;;
21539;SDS011;10931;52.164;5.518;2023-05-23T01:02:05;3.58;;;1.90;;
21539;SDS011;10931;52.164;5.518;2023-05-23T01:04:32;2.10;;;1.65;;
21539;SDS011;10931;52.164;5.518;2023-05-23T01:06:58;2.63;;;1.80;;
21539;SDS011;10931;52.164;5.518;2023-05-23T01:09:25;1.63;;;1.52;;
21539;SDS011;10931;52.164;5.518;2023-05-23T01:14:37;3.85;;;2.00;;
21539;SDS011;10931;52.164;5.518;2023-05-23T01:17:10;2.33;;;1.77;;
21539;SDS011;10931;52.164;5.518;2023-05-23T01:19:50;2.58;;;1.85;;
21539;SDS011;10931;52.164;5.518;2023-05-23T01:28:17;3.05;;;1.85;;
21539;SDS011;10931;52.164;5.518;2023-05-23T01:31:15;2.58;;;1.60;;
21539;SDS011;10931;52.164;5.518;2023-05-23T01:33:42;3.33;;;1.50;;
21539;SDS011;10931;52.164;5.518;2023-05-23T01:36:09;2.45;;;1.70;;
21539;SDS011;10931;52.164;5.518;2023-05-23T01:38:46;3.92;;;1.92;;
21539;SDS011;10931;52.164;5.518;2023-05-23T01:41:14;2.85;;;2.00;;
21539;SDS011;10931;52.164;5.518;2023-05-23T01:43:40;1.98;;;1.40;;
21539;SDS011;10931;52.164;5.518;2023-05-23T01:46:05;2.95;;;2.03;;
21539;SDS011;10931;52.164;5.518;2023-05-23T01:48:38;2.88;;;1.85;;
21539;SDS011;10931;52.164;5.518;2023-05-23T01:51:05;2.28;;;1.70;;
21539;SDS011;10931;52.164;5.518;2023-05-23T01:53:31;2.30;;;1.60;;
21539;SDS011;10931;52.164;5.518;2023-05-23T01:55:57;3.65;;;1.77;;
21539;SDS011;10931;52.164;5.518;2023-05-23T01:58:27;3.40;;;2.10;;
21539;SDS011;10931;52.164;5.518;2023-05-23T02:00:54;2.30;;;1.60;;
21539;SDS011;10931;52.164;5.518;2023-05-23T02:03:23;2.65;;;1.63;;
21539;SDS011;10931;52.164;5.518;2023-05-23T02:05:49;4.05;;;2.10;;
21539;SDS011;10931;52.164;5.518;2023-05-23T02:08:15;2.80;;;1.85;;
21539;SDS011;10931;52.164;5.518;2023-05-23T02:10:43;2.28;;;1.67;;
21539;SDS011;10931;52.164;5.518;2023-05-23T02:13:11;2.30;;;1.67;;
21539;SDS011;10931;52.164;5.518;2023-05-23T02:15:37;2.72;;;1.80;;
21539;SDS011;10931;52.164;5.518;2023-05-23T02:18:03;3.55;;;1.90;;
21539;SDS011;10931;52.164;5.518;2023-05-23T02:20:30;2.83;;;1.67;;
21539;SDS011;10931;52.164;5.518;2023-05-23T02:22:56;4.32;;;1.92;;
21539;SDS011;10931;52.164;5.518;2023-05-23T02:25:25;2.85;;;1.75;;
21539;SDS011;10931;52.164;5.518;2023-05-23T02:27:50;2.25;;;1.90;;
21539;SDS011;10931;52.164;5.518;2023-05-23T02:30:19;2.67;;;1.80;;
21539;SDS011;10931;52.164;5.518;2023-05-23T02:32:47;2.08;;;1.85;;
21539;SDS011;10931;52.164;5.518;2023-05-23T02:35:17;3.60;;;1.77;;
21539;SDS011;10931;52.164;5.518;2023-05-23T02:38:01;2.45;;;1.80;;
21539;SDS011;10931;52.164;5.518;2023-05-23T02:40:26;2.50;;;1.83;;
21539;SDS011;10931;52.164;5.518;2023-05-23T02:42:52;3.97;;;2.22;;
21539;SDS011;10931;52.164;5.518;2023-05-23T02:45:23;2.72;;;2.05;;
21539;SDS011;10931;52.164;5.518;2023-05-23T02:47:49;3.53;;;1.90;;
21539;SDS011;10931;52.164;5.518;2023-05-23T02:50:15;2.58;;;2.15;;
21539;SDS011;10931;52.164;5.518;2023-05-23T02:52:47;3.63;;;1.90;;
21539;SDS011;10931;52.164;5.518;2023-05-23T02:55:13;2.38;;;1.70;;
21539;SDS011;10931;52.164;5.518;2023-05-23T02:57:38;2.35;;;1.90;;
21539;SDS011;10931;52.164;5.518;2023-05-23T03:00:04;2.95;;;1.73;;
21539;SDS011;10931;52.164;5.518;2023-05-23T03:02:30;2.47;;;1.55;;
21539;SDS011;10931;52.164;5.518;2023-05-23T03:04:59;3.05;;;1.83;;
21539;SDS011;10931;52.164;5.518;2023-05-23T03:07:27;2.67;;;1.80;;
21539;SDS011;10931;52.164;5.518;2023-05-23T03:09:59;2.53;;;1.60;;
21539;SDS011;10931;52.164;5.518;2023-05-23T03:12:26;2.72;;;1.80;;
21539;SDS011;10931;52.164;5.518;2023-05-23T03:14:55;3.17;;;1.85;;
21539;SDS011;10931;52.164;5.518;2023-05-23T03:17:26;3.33;;;1.90;;
21539;SDS011;10931;52.164;5.518;2023-05-23T03:19:52;4.38;;;2.20;;
21539;SDS011;10931;52.164;5.518;2023-05-23T03:22:17;2.72;;;1.90;;
21539;SDS011;10931;52.164;5.518;2023-05-23T03:24:46;2.78;;;1.88;;
21539;SDS011;10931;52.164;5.518;2023-05-23T03:27:12;3.75;;;2.10;;
21539;SDS011;10931;52.164;5.518;2023-05-23T03:29:48;3.47;;;1.80;;
21539;SDS011;10931;52.164;5.518;2023-05-23T03:32:14;4.18;;;2.30;;
21539;SDS011;10931;52.164;5.518;2023-05-23T03:34:50;4.05;;;2.40;;
21539;SDS011;10931;52.164;5.518;2023-05-23T03:37:18;4.47;;;2.35;;
21539;SDS011;10931;52.164;5.518;2023-05-23T03:39:46;4.28;;;2.13;;
21539;SDS011;10931;52.164;5.518;2023-05-23T03:42:16;3.83;;;2.10;;
21539;SDS011;10931;52.164;5.518;2023-05-23T03:44:44;4.32;;;1.83;;
21539;SDS011;10931;52.164;5.518;2023-05-23T03:47:12;5.47;;;2.00;;
21539;SDS011;10931;52.164;5.518;2023-05-23T03:49:38;4.30;;;2.00;;
21539;SDS011;10931;52.164;5.518;2023-05-23T03:52:08;3.55;;;2.30;;
21539;SDS011;10931;52.164;5.518;2023-05-23T03:54:34;2.75;;;1.80;;
21539;SDS011;10931;52.164;5.518;2023-05-23T03:57:00;4.55;;;2.35;;
21539;SDS011;10931;52.164;5.518;2023-05-23T03:59:27;3.05;;;2.00;;
21539;SDS011;10931;52.164;5.518;2023-05-23T04:02:00;3.15;;;1.90;;
21539;SDS011;10931;52.164;5.518;2023-05-23T04:04:31;4.30;;;2.17;;
21539;SDS011;10931;52.164;5.518;2023-05-23T04:07:03;3.40;;;2.28;;
21539;SDS011;10931;52.164;5.518;2023-05-23T04:09:32;6.15;;;2.10;;
21539;SDS011;10931;52.164;5.518;2023-05-23T04:12:01;3.95;;;2.22;;
21539;SDS011;10931;52.164;5.518;2023-05-23T04:14:26;5.55;;;2.22;;
21539;SDS011;10931;52.164;5.518;2023-05-23T04:16:53;3.40;;;2.30;;
21539;SDS011;10931;52.164;5.518;2023-05-23T04:19:22;4.63;;;2.22;;
21539;SDS011;10931;52.164;5.518;2023-05-23T04:21:52;4.40;;;1.80;;
21539;SDS011;10931;52.164;5.518;2023-05-23T04:24:20;5.72;;;2.25;;
21539;SDS011;10931;52.164;5.518;2023-05-23T04:26:45;5.30;;;2.20;;
21539;SDS011;10931;52.164;5.518;2023-05-23T04:29:23;5.53;;;2.03;;
21539;SDS011;10931;52.164;5.518;2023-05-23T04:31:58;3.63;;;2.33;;
21539;SDS011;10931;52.164;5.518;2023-05-23T04:34:24;2.65;;;1.90;;
21539;SDS011;10931;52.164;5.518;2023-05-23T04:36:51;5.70;;;2.15;;
21539;SDS011;10931;52.164;5.518;2023-05-23T04:39:18;3.58;;;1.75;;
21539;SDS011;10931;52.164;5.518;2023-05-23T04:41:44;3.10;;;1.92;;
21539;SDS011;10931;52.164;5.518;2023-05-23T04:44:10;4.75;;;1.77;;
21539;SDS011;10931;52.164;5.518;2023-05-23T04:46:36;6.25;;;2.65;;
21539;SDS011;10931;52.164;5.518;2023-05-23T04:49:06;4.65;;;2.03;;
21539;SDS011;10931;52.164;5.518;2023-05-23T04:51:34;3.55;;;2.10;;
21539;SDS011;10931;52.164;5.518;2023-05-23T04:54:15;3.55;;;1.75;;
21539;SDS011;10931;52.164;5.518;2023-05-23T04:57:14;4.50;;;1.85;;
21539;SDS011;10931;52.164;5.518;2023-05-23T04:59:42;3.55;;;1.60;;
21539;SDS011;10931;52.164;5.518;2023-05-23T05:02:08;3.90;;;1.90;;
21539;SDS011;10931;52.164;5.518;2023-05-23T05:04:34;5.05;;;1.95;;
21539;SDS011;10931;52.164;5.518;2023-05-23T05:07:00;3.60;;;1.95;;
21539;SDS011;10931;52.164;5.518;2023-05-23T05:09:28;5.28;;;2.10;;
21539;SDS011;10931;52.164;5.518;2023-05-23T05:11:55;3.80;;;1.85;;
21539;SDS011;10931;52.164;5.518;2023-05-23T05:14:21;2.70;;;1.50;;
21539;SDS011;10931;52.164;5.518;2023-05-23T05:16:47;3.83;;;1.55;;
21539;SDS011;10931;52.164;5.518;2023-05-23T05:19:14;3.92;;;1.70;;
21539;SDS011;10931;52.164;5.518;2023-05-23T05:21:40;3.33;;;1.60;;
21539;SDS011;10931;52.164;5.518;2023-05-23T05:24:05;3.72;;;2.00;;
21539;SDS011;10931;52.164;5.518;2023-05-23T05:26:33;4.75;;;1.65;;
21539;SDS011;10931;52.164;5.518;2023-05-23T05:29:09;3.00;;;1.83;;
21539;SDS011;10931;52.164;5.518;2023-05-23T05:31:35;3.92;;;1.92;;
21539;SDS011;10931;52.164;5.518;2023-05-23T05:34:01;2.97;;;1.75;;
21539;SDS011;10931;52.164;5.518;2023-05-23T05:36:33;3.95;;;1.95;;
21539;SDS011;10931;52.164;5.518;2023-05-23T05:38:59;4.22;;;1.63;;
21539;SDS011;10931;52.164;5.518;2023-05-23T05:41:24;3.00;;;1.55;;
21539;SDS011;10931;52.164;5.518;2023-05-23T05:43:53;2.47;;;1.70;;
21539;SDS011;10931;52.164;5.518;2023-05-23T05:46:18;3.50;;;1.73;;
21539;SDS011;10931;52.164;5.518;2023-05-23T05:48:44;3.60;;;1.50;;
21539;SDS011;10931;52.164;5.518;2023-05-23T05:51:11;3.83;;;1.58;;
21539;SDS011;10931;52.164;5.518;2023-05-23T05:53:45;2.60;;;1.50;;
21539;SDS011;10931;52.164;5.518;2023-05-23T05:56:11;6.47;;;1.50;;
21539;SDS011;10931;52.164;5.518;2023-05-23T05:58:37;4.32;;;2.00;;
21539;SDS011;10931;52.164;5.518;2023-05-23T06:01:03;2.60;;;1.77;;
21539;SDS011;10931;52.164;5.518;2023-05-23T06:03:29;2.75;;;1.70;;
21539;SDS011;10931;52.164;5.518;2023-05-23T06:05:56;3.75;;;1.75;;
21539;SDS011;10931;52.164;5.518;2023-05-23T06:08:21;5.07;;;1.50;;
21539;SDS011;10931;52.164;5.518;2023-05-23T06:13:33;2.75;;;1.55;;
21539;SDS011;10931;52.164;5.518;2023-05-23T06:16:19;2.28;;;1.63;;
21539;SDS011;10931;52.164;5.518;2023-05-23T06:18:45;3.85;;;1.83;;
21539;SDS011;10931;52.164;5.518;2023-05-23T06:21:10;3.35;;;1.48;;
21539;SDS011;10931;52.164;5.518;2023-05-23T06:23:36;4.00;;;1.90;;
21539;SDS011;10931;52.164;5.518;2023-05-23T06:26:04;3.78;;;1.73;;
21539;SDS011;10931;52.164;5.518;2023-05-23T06:28:38;2.58;;;1.75;;
21539;SDS011;10931;52.164;5.518;2023-05-23T06:31:06;2.40;;;1.48;;
21539;SDS011;10931;52.164;5.518;2023-05-23T06:33:35;2.47;;;1.60;;
21539;SDS011;10931;52.164;5.518;2023-05-23T06:36:06;4.40;;;1.90;;
21539;SDS011;10931;52.164;5.518;2023-05-23T06:38:35;3.22;;;1.77;;
21539;SDS011;10931;52.164;5.518;2023-05-23T06:41:03;4.18;;;1.67;;
21539;SDS011;10931;52.164;5.518;2023-05-23T06:43:31;4.10;;;1.50;;
21539;SDS011;10931;52.164;5.518;2023-05-23T06:46:00;4.13;;;1.83;;
21539;SDS011;10931;52.164;5.518;2023-05-23T06:48:26;3.38;;;1.60;;
21539;SDS011;10931;52.164;5.518;2023-05-23T06:50:51;2.92;;;1.95;;
21539;SDS011;10931;52.164;5.518;2023-05-23T06:53:25;3.40;;;1.85;;
21539;SDS011;10931;52.164;5.518;2023-05-23T06:55:50;4.75;;;1.75;;
21539;SDS011;10931;52.164;5.518;2023-05-23T06:58:16;4.55;;;1.65;;
21539;SDS011;10931;52.164;5.518;2023-05-23T07:00:42;3.20;;;1.77;;
21539;SDS011;10931;52.164;5.518;2023-05-23T07:03:10;4.13;;;1.70;;
21539;SDS011;10931;52.164;5.518;2023-05-23T07:05:39;3.60;;;1.80;;
21539;SDS011;10931;52.164;5.518;2023-05-23T07:08:05;4.40;;;1.83;;
21539;SDS011;10931;52.164;5.518;2023-05-23T07:10:31;3.05;;;1.40;;
21539;SDS011;10931;52.164;5.518;2023-05-23T07:12:58;3.42;;;1.73;;
21539;SDS011;10931;52.164;5.518;2023-05-23T07:15:24;2.58;;;1.52;;
21539;SDS011;10931;52.164;5.518;2023-05-23T07:17:52;3.45;;;1.77;;
21539;SDS011;10931;52.164;5.518;2023-05-23T07:20:18;2.22;;;1.50;;
21539;SDS011;10931;52.164;5.518;2023-05-23T07:22:43;4.13;;;1.65;;
21539;SDS011;10931;52.164;5.518;2023-05-23T07:25:09;5.38;;;2.00;;
21539;SDS011;10931;52.164;5.518;2023-05-23T07:27:35;5.45;;;1.77;;
21539;SDS011;10931;52.164;5.518;2023-05-23T07:30:02;4.22;;;1.70;;
21539;SDS011;10931;52.164;5.518;2023-05-23T07:32:29;6.05;;;1.85;;
21539;SDS011;10931;52.164;5.518;2023-05-23T07:34:55;3.88;;;1.52;;
21539;SDS011;10931;52.164;5.518;2023-05-23T07:37:20;4.05;;;1.83;;
21539;SDS011;10931;52.164;5.518;2023-05-23T07:39:46;5.43;;;1.77;;
21539;SDS011;10931;52.164;5.518;2023-05-23T07:42:12;5.65;;;2.15;;
21539;SDS011;10931;52.164;5.518;2023-05-23T07:44:40;3.00;;;1.20;;
21539;SDS011;10931;52.164;5.518;2023-05-23T07:47:05;4.18;;;1.65;;
21539;SDS011;10931;52.164;5.518;2023-05-23T07:49:31;3.38;;;1.60;;
21539;SDS011;10931;52.164;5.518;2023-05-23T07:51:57;2.83;;;1.55;;
21539;SDS011;10931;52.164;5.518;2023-05-23T07:54:22;2.65;;;1.35;;
21539;SDS011;10931;52.164;5.518;2023-05-23T07:56:55;4.43;;;1.80;;
21539;SDS011;10931;52.164;5.518;2023-05-23T07:59:21;4.55;;;1.52;;
21539;SDS011;10931;52.164;5.518;2023-05-23T08:01:50;4.78;;;1.48;;
21539;SDS011;10931;52.164;5.518;2023-05-23T08:04:16;2.38;;;1.33;;
21539;SDS011;10931;52.164;5.518;2023-05-23T08:06:42;3.88;;;1.52;;
21539;SDS011;10931;52.164;5.518;2023-05-23T08:09:11;4.75;;;1.60;;
21539;SDS011;10931;52.164;5.518;2023-05-23T08:11:37;3.70;;;1.50;;
21539;SDS011;10931;52.164;5.518;2023-05-23T08:14:02;4.22;;;1.77;;
21539;SDS011;10931;52.164;5.518;2023-05-23T08:16:28;5.93;;;2.00;;
21539;SDS011;10931;52.164;5.518;2023-05-23T08:18:56;4.25;;;1.52;;
21539;SDS011;10931;52.164;5.518;2023-05-23T08:21:22;7.15;;;1.42;;
21539;SDS011;10931;52.164;5.518;2023-05-23T08:23:48;4.43;;;1.50;;
21539;SDS011;10931;52.164;5.518;2023-05-23T08:26:19;4.57;;;1.50;;
21539;SDS011;10931;52.164;5.518;2023-05-23T08:28:45;4.97;;;1.73;;
21539;SDS011;10931;52.164;5.518;2023-05-23T08:31:17;4.40;;;1.73;;
21539;SDS011;10931;52.164;5.518;2023-05-23T08:33:43;3.30;;;1.42;;
21539;SDS011;10931;52.164;5.518;2023-05-23T08:36:09;6.30;;;1.52;;
21539;SDS011;10931;52.164;5.518;2023-05-23T08:38:34;5.57;;;1.60;;
21539;SDS011;10931;52.164;5.518;2023-05-23T08:41:03;5.05;;;1.67;;
21539;SDS011;10931;52.164;5.518;2023-05-23T08:43:32;4.55;;;1.65;;
21539;SDS011;10931;52.164;5.518;2023-05-23T08:46:01;3.85;;;1.60;;
21539;SDS011;10931;52.164;5.518;2023-05-23T08:48:37;2.83;;;1.60;;
21539;SDS011;10931;52.164;5.518;2023-05-23T08:51:08;6.85;;;1.52;;
21539;SDS011;10931;52.164;5.518;2023-05-23T08:53:37;7.00;;;1.42;;
21539;SDS011;10931;52.164;5.518;2023-05-23T08:56:08;6.93;;;1.52;;
21539;SDS011;10931;52.164;5.518;2023-05-23T08:58:34;3.55;;;1.27;;
21539;SDS011;10931;52.164;5.518;2023-05-23T09:01:00;3.72;;;1.40;;
21539;SDS011;10931;52.164;5.518;2023-05-23T09:03:26;3.08;;;1.20;;
21539;SDS011;10931;52.164;5.518;2023-05-23T09:05:55;5.88;;;1.52;;
21539;SDS011;10931;52.164;5.518;2023-05-23T09:08:22;5.05;;;1.65;;
21539;SDS011;10931;52.164;5.518;2023-05-23T09:10:50;3.90;;;1.17;;
21539;SDS011;10931;52.164;5.518;2023-05-23T09:13:17;6.65;;;1.45;;
21539;SDS011;10931;52.164;5.518;2023-05-23T09:16:07;6.20;;;1.80;;
21539;SDS011;10931;52.164;5.518;2023-05-23T09:18:54;2.95;;;1.35;;
21539;SDS011;10931;52.164;5.518;2023-05-23T09:21:22;4.10;;;1.55;;
21539;SDS011;10931;52.164;5.518;2023-05-23T09:23:49;5.15;;;1.38;;
21539;SDS011;10931;52.164;5.518;2023-05-23T09:26:16;4.85;;;1.58;;
21539;SDS011;10931;52.164;5.518;2023-05-23T09:28:42;2.85;;;1.33;;
21539;SDS011;10931;52.164;5.518;2023-05-23T09:31:09;3.63;;;1.77;;
21539;SDS011;10931;52.164;5.518;2023-05-23T09:33:44;4.10;;;1.40;;
21539;SDS011;10931;52.164;5.518;2023-05-23T09:36:14;4.95;;;1.58;;
21539;SDS011;10931;52.164;5.518;2023-05-23T09:38:41;7.10;;;1.67;;
21539;SDS011;10931;52.164;5.518;2023-05-23T09:41:08;4.47;;;1.35;;
21539;SDS011;10931;52.164;5.518;2023-05-23T09:43:52;6.55;;;1.80;;
21539;SDS011;10931;52.164;5.518;2023-05-23T09:46:19;4.68;;;1.65;;
21539;SDS011;10931;52.164;5.518;2023-05-23T09:48:55;4.13;;;1.63;;
21539;SDS011;10931;52.164;5.518;2023-05-23T09:51:24;3.33;;;1.00;;
21539;SDS011;10931;52.164;5.518;2023-05-23T09:54:02;6.20;;;1.27;;
21539;SDS011;10931;52.164;5.518;2023-05-23T09:56:28;5.13;;;1.50;;
21539;SDS011;10931;52.164;5.518;2023-05-23T09:58:54;4.22;;;1.60;;
21539;SDS011;10931;52.164;5.518;2023-05-23T10:01:28;5.68;;;1.40;;
21539;SDS011;10931;52.164;5.518;2023-05-23T10:03:55;3.97;;;1.98;;
21539;SDS011;10931;52.164;5.518;2023-05-23T10:06:25;7.40;;;2.13;;
21539;SDS011;10931;52.164;5.518;2023-05-23T10:09:05;3.80;;;0.98;;
21539;SDS011;10931;52.164;5.518;2023-05-23T10:14:00;5.00;;;1.27;;
21539;SDS011;10931;52.164;5.518;2023-05-23T10:19:47;5.55;;;1.50;;
21539;SDS011;10931;52.164;5.518;2023-05-23T10:22:20;5.10;;;1.20;;
21539;SDS011;10931;52.164;5.518;2023-05-23T10:24:48;3.20;;;1.60;;
21539;SDS011;10931;52.164;5.518;2023-05-23T10:27:14;4.97;;;1.55;;
21539;SDS011;10931;52.164;5.518;2023-05-23T10:29:40;3.33;;;1.23;;
21539;SDS011;10931;52.164;5.518;2023-05-23T10:32:06;4.97;;;1.58;;
21539;SDS011;10931;52.164;5.518;2023-05-23T10:34:39;6.40;;;1.67;;
21539;SDS011;10931;52.164;5.518;2023-05-23T10:37:17;4.97;;;1.55;;
21539;SDS011;10931;52.164;5.518;2023-05-23T10:40:00;4.57;;;1.38;;
21539;SDS011;10931;52.164;5.518;2023-05-23T10:45:38;3.60;;;1.30;;
21539;SDS011;10931;52.164;5.518;2023-05-23T10:53:42;3.80;;;1.25;;
21539;SDS011;10931;52.164;5.518;2023-05-23T10:56:10;3.20;;;1.30;;
21539;SDS011;10931;52.164;5.518;2023-05-23T10:58:51;5.70;;;1.30;;
21539;SDS011;10931;52.164;5.518;2023-05-23T11:01:23;5.65;;;1.33;;
21539;SDS011;10931;52.164;5.518;2023-05-23T11:04:06;3.13;;;1.38;;
21539;SDS011;10931;52.164;5.518;2023-05-23T11:06:42;3.83;;;1.10;;
21539;SDS011;10931;52.164;5.518;2023-05-23T11:09:11;6.47;;;1.77;;
21539;SDS011;10931;52.164;5.518;2023-05-23T11:11:58;11.40;;;1.67;;
21539;SDS011;10931;52.164;5.518;2023-05-23T11:14:33;4.18;;;1.27;;
21539;SDS011;10931;52.164;5.518;2023-05-23T11:19:37;5.70;;;1.90;;
21539;SDS011;10931;52.164;5.518;2023-05-23T11:22:29;2.53;;;1.02;;
21539;SDS011;10931;52.164;5.518;2023-05-23T11:24:56;3.47;;;1.42;;
21539;SDS011;10931;52.164;5.518;2023-05-23T11:28:06;6.00;;;1.42;;
21539;SDS011;10931;52.164;5.518;2023-05-23T11:30:14;3.78;;;1.10;;
21539;SDS011;10931;52.164;5.518;2023-05-23T11:32:51;3.95;;;1.45;;
21539;SDS011;10931;52.164;5.518;2023-05-23T11:35:21;6.32;;;1.40;;
21539;SDS011;10931;52.164;5.518;2023-05-23T11:37:55;3.22;;;1.17;;
21539;SDS011;10931;52.164;5.518;2023-05-23T11:40:28;2.78;;;1.02;;
21539;SDS011;10931;52.164;5.518;2023-05-23T11:42:56;2.80;;;0.90;;
21539;SDS011;10931;52.164;5.518;2023-05-23T11:45:23;6.50;;;1.60;;
21539;SDS011;10931;52.164;5.518;2023-05-23T11:47:50;6.70;;;1.60;;
21539;SDS011;10931;52.164;5.518;2023-05-23T11:50:16;3.72;;;1.40;;
21539;SDS011;10931;52.164;5.518;2023-05-23T11:52:44;3.45;;;1.10;;
21539;SDS011;10931;52.164;5.518;2023-05-23T11:55:20;4.25;;;1.17;;
21539;SDS011;10931;52.164;5.518;2023-05-23T11:57:46;3.70;;;1.27;;
21539;SDS011;10931;52.164;5.518;2023-05-23T12:00:13;2.97;;;1.20;;
21539;SDS011;10931;52.164;5.518;2023-05-23T12:02:40;2.70;;;1.15;;
21539;SDS011;10931;52.164;5.518;2023-05-23T12:05:11;6.72;;;1.40;;
21539;SDS011;10931;52.164;5.518;2023-05-23T12:07:47;3.42;;;1.05;;
21539;SDS011;10931;52.164;5.518;2023-05-23T12:10:14;4.32;;;1.23;;
21539;SDS011;10931;52.164;5.518;2023-05-23T12:13:00;3.05;;;1.30;;
21539;SDS011;10931;52.164;5.518;2023-05-23T12:15:29;6.53;;;1.40;;
21539;SDS011;10931;52.164;5.518;2023-05-23T12:17:58;3.05;;;1.30;;
21539;SDS011;10931;52.164;5.518;2023-05-23T12:20:26;3.38;;;1.25;;
21539;SDS011;10931;52.164;5.518;2023-05-23T12:22:55;3.47;;;1.00;;
21539;SDS011;10931;52.164;5.518;2023-05-23T12:25:21;5.80;;;1.17;;
21539;SDS011;10931;52.164;5.518;2023-05-23T12:27:47;4.00;;;1.15;;
21539;SDS011;10931;52.164;5.518;2023-05-23T12:30:58;4.60;;;1.20;;
21539;SDS011;10931;52.164;5.518;2023-05-23T12:33:08;6.18;;;1.17;;
21539;SDS011;10931;52.164;5.518;2023-05-23T12:35:34;5.63;;;1.30;;
21539;SDS011;10931;52.164;5.518;2023-05-23T12:38:04;7.65;;;1.60;;
21539;SDS011;10931;52.164;5.518;2023-05-23T12:40:35;5.32;;;1.23;;
21539;SDS011;10931;52.164;5.518;2023-05-23T12:43:07;3.22;;;1.27;;
21539;SDS011;10931;52.164;5.518;2023-05-23T12:45:34;6.50;;;1.17;;
21539;SDS011;10931;52.164;5.518;2023-05-23T12:48:05;6.32;;;1.23;;
21539;SDS011;10931;52.164;5.518;2023-05-23T12:50:31;3.03;;;0.88;;
21539;SDS011;10931;52.164;5.518;2023-05-23T12:52:57;4.47;;;1.00;;
21539;SDS011;10931;52.164;5.518;2023-05-23T12:55:26;1.45;;;0.70;;
21539;SDS011;10931;52.164;5.518;2023-05-23T12:57:54;3.05;;;1.00;;
21539;SDS011;10931;52.164;5.518;2023-05-23T13:00:22;4.28;;;1.42;;
21539;SDS011;10931;52.164;5.518;2023-05-23T13:02:50;3.42;;;0.93;;
21539;SDS011;10931;52.164;5.518;2023-05-23T13:05:16;3.10;;;0.75;;
21539;SDS011;10931;52.164;5.518;2023-05-23T13:07:46;2.13;;;1.00;;
21539;SDS011;10931;52.164;5.518;2023-05-23T13:10:12;4.45;;;1.10;;
21539;SDS011;10931;52.164;5.518;2023-05-23T13:12:40;3.97;;;1.10;;
21539;SDS011;10931;52.164;5.518;2023-05-23T13:15:15;3.58;;;0.98;;
21539;SDS011;10931;52.164;5.518;2023-05-23T13:17:41;4.38;;;1.20;;
21539;SDS011;10931;52.164;5.518;2023-05-23T13:20:10;3.65;;;1.00;;
21539;SDS011;10931;52.164;5.518;2023-05-23T13:22:38;3.97;;;1.05;;
21539;SDS011;10931;52.164;5.518;2023-05-23T13:25:07;3.90;;;1.15;;
21539;SDS011;10931;52.164;5.518;2023-05-23T13:27:35;3.13;;;1.20;;
21539;SDS011;10931;52.164;5.518;2023-05-23T13:30:07;2.33;;;1.00;;
21539;SDS011;10931;52.164;5.518;2023-05-23T13:32:33;2.97;;;0.98;;
21539;SDS011;10931;52.164;5.518;2023-05-23T13:34:59;5.18;;;1.23;;
21539;SDS011;10931;52.164;5.518;2023-05-23T13:40:06;4.65;;;1.20;;
21539;SDS011;10931;52.164;5.518;2023-05-23T13:42:36;3.33;;;0.93;;
21539;SDS011;10931;52.164;5.518;2023-05-23T13:45:04;4.10;;;1.45;;
21539;SDS011;10931;52.164;5.518;2023-05-23T13:47:33;2.75;;;0.80;;
21539;SDS011;10931;52.164;5.518;2023-05-23T13:50:07;4.25;;;1.67;;
21539;SDS011;10931;52.164;5.518;2023-05-23T13:52:33;3.03;;;0.90;;
21539;SDS011;10931;52.164;5.518;2023-05-23T13:55:00;4.60;;;1.13;;
21539;SDS011;10931;52.164;5.518;2023-05-23T13:57:29;4.43;;;1.40;;
21539;SDS011;10931;52.164;5.518;2023-05-23T13:59:57;3.85;;;1.20;;
21539;SDS011;10931;52.164;5.518;2023-05-23T14:02:23;4.82;;;1.00;;
21539;SDS011;10931;52.164;5.518;2023-05-23T14:04:49;4.07;;;1.00;;
21539;SDS011;10931;52.164;5.518;2023-05-23T14:07:16;3.92;;;0.90;;
21539;SDS011;10931;52.164;5.518;2023-05-23T14:09:42;6.03;;;1.33;;
21539;SDS011;10931;52.164;5.518;2023-05-23T14:12:08;2.58;;;0.98;;
21539;SDS011;10931;52.164;5.518;2023-05-23T14:14:34;2.55;;;1.00;;
21539;SDS011;10931;52.164;5.518;2023-05-23T14:17:00;2.70;;;1.13;;
21539;SDS011;10931;52.164;5.518;2023-05-23T14:19:26;3.75;;;1.20;;
21539;SDS011;10931;52.164;5.518;2023-05-23T14:21:52;2.40;;;0.90;;
21539;SDS011;10931;52.164;5.518;2023-05-23T14:24:19;6.13;;;1.17;;
21539;SDS011;10931;52.164;5.518;2023-05-23T14:26:46;5.45;;;1.20;;
21539;SDS011;10931;52.164;5.518;2023-05-23T14:29:14;2.50;;;0.95;;
21539;SDS011;10931;52.164;5.518;2023-05-23T14:31:42;3.83;;;0.88;;
21539;SDS011;10931;52.164;5.518;2023-05-23T14:34:08;3.70;;;1.13;;
21539;SDS011;10931;52.164;5.518;2023-05-23T14:36:35;1.98;;;0.90;;
21539;SDS011;10931;52.164;5.518;2023-05-23T14:39:01;3.53;;;0.90;;
21539;SDS011;10931;52.164;5.518;2023-05-23T14:41:30;1.95;;;1.02;;
21539;SDS011;10931;52.164;5.518;2023-05-23T14:43:56;2.05;;;0.90;;
21539;SDS011;10931;52.164;5.518;2023-05-23T15:21:31;17.00;;;2.72;;
21539;SDS011;10931;52.164;5.518;2023-05-23T15:24:07;8.45;;;1.88;;
21539;SDS011;10931;52.164;5.518;2023-05-23T15:26:38;8.63;;;2.00;;
21539;SDS011;10931;52.164;5.518;2023-05-23T15:29:03;8.85;;;1.83;;
21539;SDS011;10931;52.164;5.518;2023-05-23T15:31:29;14.88;;;1.75;;
21539;SDS011;10931;52.164;5.518;2023-05-23T15:33:58;5.68;;;1.48;;
21539;SDS011;10931;52.164;5.518;2023-05-23T15:39:49;6.25;;;1.30;;
21539;SDS011;10931;52.164;5.518;2023-05-23T15:42:55;12.60;;;1.60;;
21539;SDS011;10931;52.164;5.518;2023-05-23T15:45:53;7.68;;;1.48;;
21539;SDS011;10931;52.164;5.518;2023-05-23T15:49:38;7.38;;;1.33;;
21539;SDS011;10931;52.164;5.518;2023-05-23T15:59:45;6.15;;;1.40;;
21539;SDS011;10931;52.164;5.518;2023-05-23T16:02:22;8.68;;;1.58;;
21539;SDS011;10931;52.164;5.518;2023-05-23T16:05:17;4.88;;;1.23;;
21539;SDS011;10931;52.164;5.518;2023-05-23T16:07:54;5.00;;;2.28;;
21539;SDS011;10931;52.164;5.518;2023-05-23T16:13:52;5.60;;;1.25;;
21539;SDS011;10931;52.164;5.518;2023-05-23T16:19:21;4.22;;;1.40;;
21539;SDS011;10931;52.164;5.518;2023-05-23T16:26:16;5.43;;;1.10;;
21539;SDS011;10931;52.164;5.518;2023-05-23T16:32:01;7.03;;;1.20;;
21539;SDS011;10931;52.164;5.518;2023-05-23T16:35:05;5.35;;;1.40;;